Time;durP1;ratioP1;P1;durP2;ratioP2;P2;SDS_P1;SDS_P2;PMS_P1;PMS_P2;Temp;Humidity;BMP_temperature;BMP_pressure;BME280_temperature;BME280_humidity;BME280_pressure;Samples;Min_cycle;Max_cycle;Signal;HPM_P1;HPM_P2
2022/08/05 00:00:33;;;;;;;;;;;;;;;;;;5047060;28;19952;-77
2022/08/05 00:02:59;;;;;;;;;;;;;;;;;;5042891;28;19952;-78
2022/08/05 00:05:26;;;;;;;;;;;;;;;;;;5050760;28;20455;-77
2022/08/05 00:07:52;;;;;;;;;;;;;;;;;;5044232;28;19964;-77
2022/08/05 00:10:18;;;;;;;;;;;;;;;;;;5044660;28;19960;-77
2022/08/05 00:12:44;;;;;;;;;;;;;;;;;;5047338;28;19912;-78
2022/08/05 00:15:11;;;;;;;;;;;;;;;;;;5046201;28;19928;-79
2022/08/05 00:17:37;;;;;;;;;;;;;;;;;;5048392;28;20523;-78
2022/08/05 00:20:03;;;;;;;;;;;;;;;;;;5034500;28;19940;-79
2022/08/05 00:22:29;;;;;;;;;;;;;;;;;;5051143;28;19941;-78
2022/08/05 00:24:55;;;;;;;;;;;;;;;;;;5043627;28;19957;-78
2022/08/05 00:27:21;;;;;;;;;;;;;;;;;;5050833;28;20349;-78
2022/08/05 00:29:48;;;;;;;;;;;;;;;;;;5046559;28;19963;-78
2022/08/05 00:32:14;;;;;;;;;;;;;;;;;;5048274;28;20317;-79
2022/08/05 00:34:40;;;;;;;;;;;;;;;;;;5046803;28;19949;-77
2022/08/05 00:37:06;;;;;;;;;;;;;;;;;;5046204;28;19968;-79
2022/08/05 00:39:32;;;;;;;;;;;;;;;;;;5048426;28;21107;-78
2022/08/05 00:41:59;;;;;;;;;;;;;;;;;;5042120;28;19953;-78
2022/08/05 00:44:25;;;;;;;;;;;;;;;;;;5046206;28;20321;-79
2022/08/05 00:46:51;;;;;;;;;;;;;;;;;;5048238;28;20386;-79
2022/08/05 00:49:18;;;;;;;;;;;;;;;;;;5049875;28;19967;-76
2022/08/05 00:51:45;;;;;;;;;;;;;;;;;;5031149;28;19970;-76
2022/08/05 00:54:11;;;;;;;;;;;;;;;;;;5047835;28;19955;-75
2022/08/05 00:56:37;;;;;;;;;;;;;;;;;;5037630;28;20002;-77
2022/08/05 00:59:03;;;;;;;;;;;;;;;;;;5048098;28;19959;-77
2022/08/05 01:01:29;;;;;;;;;;;;;;;;;;5031080;28;20342;-78
2022/08/05 01:03:55;;;;;;;;;;;;;;;;;;5049799;28;19971;-79
2022/08/05 01:06:22;;;;;;;;;;;;;;;;;;5046429;28;19952;-77
2022/08/05 01:08:48;;;;;;;;;;;;;;;;;;5040225;28;19948;-76
2022/08/05 01:11:14;;;;;;;;;;;;;;;;;;5046532;28;19967;-78
2022/08/05 01:13:40;;;;;;;;;;;;;;;;;;5050556;28;20383;-79
2022/08/05 01:16:06;;;;;;;;;;;;;;;;;;5048879;28;20648;-78
2022/08/05 01:18:33;;;;;;;;;;;;;;;;;;5047641;28;19962;-80
2022/08/05 01:20:59;;;;;;;;;;;;;;;;;;5048408;28;20494;-78
2022/08/05 01:23:25;;;;;;;;;;;;;;;;;;5048947;28;20598;-79
2022/08/05 01:25:51;;;;;;;;;;;;;;;;;;5049245;28;19955;-79
2022/08/05 01:28:17;;;;;;;;;;;;;;;;;;5046618;28;19947;-79
2022/08/05 01:30:44;;;;;;;;;;;;;;;;;;5049933;28;19948;-78
2022/08/05 01:33:10;;;;;;;;;;;;;;;;;;5047258;28;20380;-78
2022/08/05 01:35:36;;;;;;;;;;;;;;;;;;5048681;28;19955;-77
2022/08/05 01:38:02;;;;;;;;;;;;;;;;;;5048326;28;19952;-78
2022/08/05 01:40:28;;;;;;;;;;;;;;;;;;5044386;28;19952;-77
2022/08/05 01:42:54;;;;;;;;;;;;;;;;;;5033731;28;19948;-78
2022/08/05 01:45:21;;;;;;;;;;;;;;;;;;5048468;28;20573;-77
2022/08/05 01:47:47;;;;;;;;;;;;;;;;;;5042117;28;19948;-78
2022/08/05 01:50:13;;;;;;;;;;;;;;;;;;5043689;28;19963;-78
2022/08/05 01:52:39;;;;;;;;;;;;;;;;;;5048316;28;19929;-78
2022/08/05 01:55:05;;;;;;;;;;;;;;;;;;5013539;28;19920;-78
2022/08/05 01:57:32;;;;;;;;;;;;;;;;;;5049260;28;19956;-79
2022/08/05 01:59:58;;;;;;;;;;;;;;;;;;5046161;28;20006;-79
2022/08/05 02:02:24;;;;;;;;;;;;;;;;;;5047707;28;20369;-79
2022/08/05 02:04:50;;;;;;;;;;;;;;;;;;5043516;28;19949;-79
2022/08/05 02:07:16;;;;;;;;;;;;;;;;;;5047798;28;19974;-79
2022/08/05 02:09:44;;;;;;;;;;;;;;;;;;5032443;28;19977;-80
2022/08/05 02:12:10;;;;;;;;;;;;;;;;;;5030976;28;19951;-80
2022/08/05 02:14:36;;;;;;;;;;;;;;;;;;5047037;28;19960;-78
2022/08/05 02:17:03;;;;;;;;;;;;;;;;;;5046707;28;19956;-78
2022/08/05 02:19:29;;;;;;;;;;;;;;;;;;5030867;28;19960;-78
2022/08/05 02:21:56;;;;;;;;;;;;;;;;;;5047265;28;20588;-79
2022/08/05 02:24:22;;;;;;;;;;;;;;;;;;5049388;28;19952;-78
2022/08/05 02:26:48;;;;;;;;;;;;;;;;;;5047177;28;19917;-79
2022/08/05 02:29:14;;;;;;;;;;;;;;;;;;5045907;28;20333;-78
2022/08/05 02:31:40;;;;;;;;;;;;;;;;;;5044816;28;19959;-79
2022/08/05 02:34:07;;;;;;;;;;;;;;;;;;5045856;28;19956;-78
2022/08/05 02:36:33;;;;;;;;;;;;;;;;;;5048611;28;20361;-78
2022/08/05 02:38:59;;;;;;;;;;;;;;;;;;5040215;28;19952;-78
2022/08/05 02:41:25;;;;;;;;;;;;;;;;;;5047478;28;19944;-78
2022/08/05 02:43:51;;;;;;;;;;;;;;;;;;5043387;28;19952;-79
2022/08/05 02:46:18;;;;;;;;;;;;;;;;;;5041778;28;19960;-79
2022/08/05 02:48:44;;;;;;;;;;;;;;;;;;5042198;28;19948;-79
2022/08/05 02:51:10;;;;;;;;;;;;;;;;;;5046677;28;20448;-79
2022/08/05 02:53:37;;;;;;;;;;;;;;;;;;5046443;28;19949;-79
2022/08/05 02:56:03;;;;;;;;;;;;;;;;;;5026777;28;20019;-79
2022/08/05 02:58:29;;;;;;;;;;;;;;;;;;5046555;28;19947;-79
2022/08/05 03:00:55;;;;;;;;;;;;;;;;;;5042942;28;19952;-79
2022/08/05 03:03:21;;;;;;;;;;;;;;;;;;5043161;28;19946;-79
2022/08/05 03:05:48;;;;;;;;;;;;;;;;;;5039920;28;19944;-80
2022/08/05 03:08:14;;;;;;;;;;;;;;;;;;5045071;28;19960;-79
2022/08/05 03:10:40;;;;;;;;;;;;;;;;;;5043436;28;19960;-79
2022/08/05 03:13:06;;;;;;;;;;;;;;;;;;5037665;28;20510;-79
2022/08/05 03:15:32;;;;;;;;;;;;;;;;;;5038435;28;20002;-79
2022/08/05 03:17:58;;;;;;;;;;;;;;;;;;5043560;28;19940;-80
2022/08/05 03:20:25;;;;;;;;;;;;;;;;;;5042527;28;19919;-79
2022/08/05 03:22:51;;;;;;;;;;;;;;;;;;5030957;28;20330;-81
2022/08/05 03:25:17;;;;;;;;;;;;;;;;;;5032109;28;20021;-78
2022/08/05 03:27:43;;;;;;;;;;;;;;;;;;5040895;28;19948;-78
2022/08/05 03:30:09;;;;;;;;;;;;;;;;;;5026984;28;19956;-78
2022/08/05 03:32:36;;;;;;;;;;;;;;;;;;5045804;28;20387;-79
2022/08/05 03:35:02;;;;;;;;;;;;;;;;;;5046435;28;19952;-78
2022/08/05 03:37:28;;;;;;;;;;;;;;;;;;5043511;28;20345;-78
2022/08/05 03:39:54;;;;;;;;;;;;;;;;;;5048073;28;19952;-77
2022/08/05 03:42:21;;;;;;;;;;;;;;;;;;5042120;28;20509;-79
2022/08/05 03:44:47;;;;;;;;;;;;;;;;;;5037370;28;20361;-78
2022/08/05 03:47:13;;;;;;;;;;;;;;;;;;5041239;28;19937;-77
2022/08/05 03:49:39;;;;;;;;;;;;;;;;;;5047258;28;19963;-77
2022/08/05 03:52:05;;;;;;;;;;;;;;;;;;5048469;28;19953;-78
2022/08/05 03:54:32;;;;;;;;;;;;;;;;;;5051715;28;19955;-78
2022/08/05 03:56:58;;;;;;;;;;;;;;;;;;5047282;28;19968;-79
2022/08/05 03:59:25;;;;;;;;;;;;;;;;;;5051308;28;19953;-77
2022/08/05 04:01:51;;;;;;;;;;;;;;;;;;5048938;28;20108;-77
2022/08/05 04:04:17;;;;;;;;;;;;;;;;;;5050398;28;20104;-79
2022/08/05 04:06:43;;;;;;;;;;;;;;;;;;5049453;28;20460;-79
2022/08/05 04:09:09;;;;;;;;;;;;;;;;;;5049792;28;19959;-79
2022/08/05 04:11:35;;;;;;;;;;;;;;;;;;5048221;28;19960;-80
2022/08/05 04:14:02;;;;;;;;;;;;;;;;;;5050351;28;19963;-80
2022/08/05 04:16:28;;;;;;;;;;;;;;;;;;5030076;28;19964;-79
2022/08/05 04:18:54;;;;;;;;;;;;;;;;;;5048389;28;19967;-79
2022/08/05 04:21:20;;;;;;;;;;;;;;;;;;5050033;28;19952;-79
2022/08/05 04:23:46;;;;;;;;;;;;;;;;;;5049269;28;19960;-79
2022/08/05 04:26:13;;;;;;;;;;;;;;;;;;5050023;28;19944;-78
2022/08/05 04:28:39;;;;;;;;;;;;;;;;;;5050362;28;19963;-80
2022/08/05 04:31:05;;;;;;;;;;;;;;;;;;5031623;28;20345;-80
2022/08/05 04:33:31;;;;;;;;;;;;;;;;;;5030021;28;19952;-80
2022/08/05 04:35:57;;;;;;;;;;;;;;;;;;5050046;28;19967;-80
2022/08/05 04:38:23;;;;;;;;;;;;;;;;;;5050067;28;19970;-80
2022/08/05 04:40:50;;;;;;;;;;;;;;;;;;5050569;28;20363;-79
2022/08/05 04:43:16;;;;;;;;;;;;;;;;;;5029075;28;19971;-80
2022/08/05 04:45:42;;;;;;;;;;;;;;;;;;5046690;28;19967;-78
2022/08/05 04:48:08;;;;;;;;;;;;;;;;;;5049326;28;20058;-78
2022/08/05 04:50:34;;;;;;;;;;;;;;;;;;5047748;28;20010;-79
2022/08/05 04:53:01;;;;;;;;;;;;;;;;;;5043433;28;19952;-79
2022/08/05 04:55:27;;;;;;;;;;;;;;;;;;5048394;28;19944;-77
2022/08/05 04:57:53;;;;;;;;;;;;;;;;;;5050329;28;19955;-76
2022/08/05 05:00:19;;;;;;;;;;;;;;;;;;5047018;28;19953;-77
2022/08/05 05:02:45;;;;;;;;;;;;;;;;;;5046082;28;19967;-77
2022/08/05 05:05:12;;;;;;;;;;;;;;;;;;5038140;28;19964;-76
2022/08/05 05:07:38;;;;;;;;;;;;;;;;;;5049335;28;20369;-78
2022/08/05 05:10:05;;;;;;;;;;;;;;;;;;5047558;28;19967;-78
2022/08/05 05:12:31;;;;;;;;;;;;;;;;;;5047151;28;20452;-79
2022/08/05 05:14:57;;;;;;;;;;;;;;;;;;5029016;28;19960;-79
2022/08/05 05:17:23;;;;;;;;;;;;;;;;;;5048160;28;20043;-79
2022/08/05 05:19:49;;;;;;;;;;;;;;;;;;5047034;28;19998;-78
2022/08/05 05:22:16;;;;;;;;;;;;;;;;;;5043813;28;19952;-79
2022/08/05 05:24:42;;;;;;;;;;;;;;;;;;5030266;28;20376;-81
2022/08/05 05:27:08;;;;;;;;;;;;;;;;;;5048146;28;20006;-80
2022/08/05 05:29:34;;;;;;;;;;;;;;;;;;5030650;28;19953;-79
2022/08/05 05:32:00;;;;;;;;;;;;;;;;;;5048696;28;19936;-81
2022/08/05 05:34:27;;;;;;;;;;;;;;;;;;5047288;28;20649;-81
2022/08/05 05:36:53;;;;;;;;;;;;;;;;;;5049033;28;19955;-80
2022/08/05 05:39:19;;;;;;;;;;;;;;;;;;5046238;28;20262;-80
2022/08/05 05:41:45;;;;;;;;;;;;;;;;;;5049044;28;19956;-81
2022/08/05 05:44:11;;;;;;;;;;;;;;;;;;5028337;28;19940;-83
2022/08/05 05:46:37;;;;;;;;;;;;;;;;;;5021849;28;19960;-82
2022/08/05 05:49:04;;;;;;;;;;;;;;;;;;5030169;28;19956;-82
2022/08/05 05:51:30;;;;;;;;;;;;;;;;;;5048990;28;19982;-81
2022/08/05 05:53:57;;;;;;;;;;;;;;;;;;5047250;28;19947;-80
2022/08/05 05:56:24;;;;;;;;;;;;;;;;;;5030504;28;19965;-84
2022/08/05 05:58:50;;;;;;;;;;;;;;;;;;5040660;28;19960;-84
2022/08/05 06:01:16;;;;;;;;;;;;;;;;;;5029380;28;19956;-84
2022/08/05 06:03:42;;;;;;;;;;;;;;;;;;5050584;28;19960;-84
2022/08/05 06:06:08;;;;;;;;;;;;;;;;;;5032028;28;20407;-82
2022/08/05 06:08:35;;;;;;;;;;;;;;;;;;5033951;28;19916;-82
2022/08/05 06:11:01;;;;;;;;;;;;;;;;;;5038042;28;19920;-82
2022/08/05 06:13:27;;;;;;;;;;;;;;;;;;5053974;28;19921;-83
2022/08/05 06:15:53;;;;;;;;;;;;;;;;;;5039013;28;19917;-83
2022/08/05 06:18:19;;;;;;;;;;;;;;;;;;5044594;28;20014;-84
2022/08/05 06:20:45;;;;;;;;;;;;;;;;;;5047237;28;19956;-84
2022/08/05 06:23:12;;;;;;;;;;;;;;;;;;5042716;28;19960;-84
2022/08/05 06:25:40;;;;;;;;;;;;;;;;;;5041152;28;20275;-83
2022/08/05 06:28:06;;;;;;;;;;;;;;;;;;5041518;28;20399;-85
2022/08/05 06:30:32;;;;;;;;;;;;;;;;;;5044313;28;19956;-82
2022/08/05 06:32:58;;;;;;;;;;;;;;;;;;5046108;28;19956;-81
2022/08/05 06:35:25;;;;;;;;;;;;;;;;;;5038897;28;19949;-83
2022/08/05 06:37:51;;;;;;;;;;;;;;;;;;5046614;28;19917;-83
2022/08/05 06:40:17;;;;;;;;;;;;;;;;;;5033671;28;19960;-84
2022/08/05 06:42:43;;;;;;;;;;;;;;;;;;5042523;28;20396;-83
2022/08/05 06:45:09;;;;;;;;;;;;;;;;;;5038507;28;19952;-83
2022/08/05 06:47:36;;;;;;;;;;;;;;;;;;5044299;28;19960;-82
2022/08/05 06:50:02;;;;;;;;;;;;;;;;;;5046271;28;19952;-82
2022/08/05 06:52:28;;;;;;;;;;;;;;;;;;5045429;28;19960;-83
2022/08/05 06:54:54;;;;;;;;;;;;;;;;;;5047249;28;19913;-83
2022/08/05 06:57:20;;;;;;;;;;;;;;;;;;5025486;28;20349;-82
2022/08/05 06:59:46;;;;;;;;;;;;;;;;;;5047644;28;19955;-83
2022/08/05 07:02:13;;;;;;;;;;;;;;;;;;5047328;28;19948;-82
2022/08/05 07:04:39;;;;;;;;;;;;;;;;;;5048027;28;19948;-82
2022/08/05 07:07:05;;;;;;;;;;;;;;;;;;5039773;28;19976;-82
2022/08/05 07:09:31;;;;;;;;;;;;;;;;;;5047503;28;19948;-84
2022/08/05 07:11:57;;;;;;;;;;;;;;;;;;5043441;28;19964;-82
2022/08/05 07:17:09;;;;;;;;;;;;;;;;;;5044945;28;19994;-86
2022/08/05 07:19:35;;;;;;;;;;;;;;;;;;5044026;28;20006;-84
2022/08/05 07:22:01;;;;;;;;;;;;;;;;;;5041933;28;20006;-85
2022/08/05 07:24:27;;;;;;;;;;;;;;;;;;5044060;28;20009;-83
2022/08/05 07:26:54;;;;;;;;;;;;;;;;;;5045273;28;20025;-83
2022/08/05 07:29:20;;;;;;;;;;;;;;;;;;5042356;28;19994;-83
2022/08/05 07:31:46;;;;;;;;;;;;;;;;;;5043640;28;19956;-81
2022/08/05 07:34:12;;;;;;;;;;;;;;;;;;5044441;28;19967;-82
2022/08/05 07:36:38;;;;;;;;;;;;;;;;;;5029843;28;19956;-80
2022/08/05 07:39:05;;;;;;;;;;;;;;;;;;5044040;28;19957;-82
2022/08/05 07:41:31;;;;;;;;;;;;;;;;;;5043182;28;19956;-81
2022/08/05 07:43:58;;;;;;;;;;;;;;;;;;5043114;28;19952;-84
2022/08/05 07:46:24;;;;;;;;;;;;;;;;;;5027848;28;20392;-83
2022/08/05 07:48:50;;;;;;;;;;;;;;;;;;5041595;28;19940;-84
2022/08/05 07:51:16;;;;;;;;;;;;;;;;;;5046626;28;19921;-85
2022/08/05 07:53:44;;;;;;;;;;;;;;;;;;5042222;28;19960;-84
2022/08/05 07:56:11;;;;;;;;;;;;;;;;;;5047383;28;19936;-81
2022/08/05 07:58:37;;;;;;;;;;;;;;;;;;5046312;28;19952;-81
2022/08/05 08:01:03;;;;;;;;;;;;;;;;;;5046894;28;19959;-84
2022/08/05 08:03:29;;;;;;;;;;;;;;;;;;5047581;28;19951;-81
2022/08/05 08:05:55;;;;;;;;;;;;;;;;;;5030722;28;20502;-82
2022/08/05 08:08:22;;;;;;;;;;;;;;;;;;5043593;28;19956;-82
2022/08/05 08:10:48;;;;;;;;;;;;;;;;;;5045218;28;19968;-80
2022/08/05 08:13:14;;;;;;;;;;;;;;;;;;5042158;28;19964;-83
2022/08/05 08:15:40;;;;;;;;;;;;;;;;;;5046986;28;19959;-84
2022/08/05 08:18:06;;;;;;;;;;;;;;;;;;5044738;28;20572;-82
2022/08/05 08:20:32;;;;;;;;;;;;;;;;;;5046914;28;19975;-87
2022/08/05 08:22:59;;;;;;;;;;;;;;;;;;5048719;28;19920;-89
2022/08/05 08:25:25;;;;;;;;;;;;;;;;;;5049707;28;19948;-89
2022/08/05 08:27:51;;;;;;;;;;;;;;;;;;5047420;28;19924;-88
2022/08/05 08:30:17;;;;;;;;;;;;;;;;;;5064282;28;19913;-89
2022/08/05 08:32:44;;;;;;;;;;;;;;;;;;5065614;28;19925;-89
2022/08/05 08:35:10;;;;;;;;;;;;;;;;;;5063908;28;19901;-89
2022/08/05 08:37:36;;;;;;;;;;;;;;;;;;5067119;28;19917;-89
2022/08/05 08:40:02;;;;;;;;;;;;;;;;;;5049143;28;19935;-88
2022/08/05 08:42:28;;;;;;;;;;;;;;;;;;5060704;28;19962;-91
2022/08/05 08:44:55;;;;;;;;;;;;;;;;;;5054846;28;19924;-89
2022/08/05 08:47:21;;;;;;;;;;;;;;;;;;5059950;28;19928;-89
2022/08/05 08:49:48;;;;;;;;;;;;;;;;;;5064665;28;19928;-89
2022/08/05 08:52:14;;;;;;;;;;;;;;;;;;5062970;28;20414;-89
2022/08/05 08:54:40;;;;;;;;;;;;;;;;;;5027323;28;19931;-90
2022/08/05 08:57:06;;;;;;;;;;;;;;;;;;5063350;28;19917;-88
2022/08/05 08:59:32;;;;;;;;;;;;;;;;;;5059715;28;19917;-89
2022/08/05 09:01:59;;;;;;;;;;;;;;;;;;5050890;28;19925;-88
2022/08/05 09:04:25;;;;;;;;;;;;;;;;;;5035157;28;20372;-88
2022/08/05 09:06:51;;;;;;;;;;;;;;;;;;5034484;28;19971;-89
2022/08/05 09:09:17;;;;;;;;;;;;;;;;;;5034288;28;19932;-89
2022/08/05 09:11:43;;;;;;;;;;;;;;;;;;5032461;28;19968;-91
2022/08/05 09:14:09;;;;;;;;;;;;;;;;;;5051749;28;19920;-88
2022/08/05 09:16:36;;;;;;;;;;;;;;;;;;5049057;28;20408;-88
2022/08/05 09:19:02;;;;;;;;;;;;;;;;;;5049685;28;19966;-89
2022/08/05 09:21:28;;;;;;;;;;;;;;;;;;5032887;28;19971;-88
2022/08/05 09:23:54;;;;;;;;;;;;;;;;;;5050121;28;19917;-90
2022/08/05 09:26:20;;;;;;;;;;;;;;;;;;5031518;28;19992;-89
2022/08/05 09:28:47;;;;;;;;;;;;;;;;;;5049724;28;19963;-88
2022/08/05 09:31:13;;;;;;;;;;;;;;;;;;5046155;28;19952;-78
2022/08/05 09:33:39;;;;;;;;;;;;;;;;;;5045998;28;20400;-81
2022/08/05 09:36:05;;;;;;;;;;;;;;;;;;5045519;28;19948;-82
2022/08/05 09:38:31;;;;;;;;;;;;;;;;;;5026905;28;19936;-79
2022/08/05 09:40:58;;;;;;;;;;;;;;;;;;5043719;28;19948;-79
2022/08/05 09:43:24;;;;;;;;;;;;;;;;;;5044072;28;19963;-79
2022/08/05 09:45:50;;;;;;;;;;;;;;;;;;5042903;28;19960;-81
2022/08/05 09:48:16;;;;;;;;;;;;;;;;;;5047435;28;20030;-85
2022/08/05 09:50:42;;;;;;;;;;;;;;;;;;5028594;28;20388;-87
2022/08/05 09:53:08;;;;;;;;;;;;;;;;;;5045997;28;19956;-88
2022/08/05 09:55:35;;;;;;;;;;;;;;;;;;5051764;28;19916;-87
2022/08/05 09:58:01;;;;;;;;;;;;;;;;;;5028656;28;19917;-81
2022/08/05 10:00:27;;;;;;;;;;;;;;;;;;5050820;28;19962;-86
2022/08/05 10:02:54;;;;;;;;;;;;;;;;;;5058014;28;19913;-92
2022/08/05 10:05:20;;;;;;;;;;;;;;;;;;5045868;28;19913;-89
2022/08/05 10:07:47;;;;;;;;;;;;;;;;;;5055051;28;19928;-93
2022/08/05 10:10:13;;;;;;;;;;;;;;;;;;5045333;28;20000;-78
2022/08/05 10:12:39;;;;;;;;;;;;;;;;;;5044350;28;19964;-80
2022/08/05 10:15:05;;;;;;;;;;;;;;;;;;5046881;28;19948;-79
2022/08/05 10:17:31;;;;;;;;;;;;;;;;;;5049090;28;19959;-81
2022/08/05 10:19:58;;;;;;;;;;;;;;;;;;5044776;28;19921;-80
2022/08/05 10:22:24;;;;;;;;;;;;;;;;;;5048257;28;20335;-79
2022/08/05 10:24:50;;;;;;;;;;;;;;;;;;5054772;28;19945;-81
2022/08/05 10:27:16;;;;;;;;;;;;;;;;;;5046661;28;19952;-80
2022/08/05 10:29:42;;;;;;;;;;;;;;;;;;5044498;28;19964;-80
2022/08/05 10:32:09;;;;;;;;;;;;;;;;;;5039439;28;19975;-81
2022/08/05 10:34:35;;;;;;;;;;;;;;;;;;5042852;28;20392;-81
2022/08/05 10:37:01;;;;;;;;;;;;;;;;;;5046714;28;19952;-80
2022/08/05 10:39:27;;;;;;;;;;;;;;;;;;5046221;28;19948;-81
2022/08/05 10:41:53;;;;;;;;;;;;;;;;;;5047619;28;20528;-81
2022/08/05 10:44:20;;;;;;;;;;;;;;;;;;5047276;28;19952;-80
2022/08/05 10:46:46;;;;;;;;;;;;;;;;;;5047010;28;19971;-81
2022/08/05 10:49:12;;;;;;;;;;;;;;;;;;5046457;28;19960;-81
2022/08/05 10:51:38;;;;;;;;;;;;;;;;;;5046832;28;19948;-81
2022/08/05 10:54:04;;;;;;;;;;;;;;;;;;5045970;28;19960;-81
2022/08/05 10:56:31;;;;;;;;;;;;;;;;;;5044923;28;20262;-82
2022/08/05 10:58:57;;;;;;;;;;;;;;;;;;5043194;28;19971;-80
2022/08/05 11:01:23;;;;;;;;;;;;;;;;;;5036373;28;20340;-81
2022/08/05 11:03:49;;;;;;;;;;;;;;;;;;5042466;28;19954;-81
2022/08/05 11:06:15;;;;;;;;;;;;;;;;;;5044878;28;19924;-80
2022/08/05 11:08:42;;;;;;;;;;;;;;;;;;5044228;28;19963;-81
2022/08/05 11:11:08;;;;;;;;;;;;;;;;;;5028768;28;19974;-80
2022/08/05 11:13:34;;;;;;;;;;;;;;;;;;5033875;28;19960;-81
2022/08/05 11:16:00;;;;;;;;;;;;;;;;;;5044005;28;19971;-80
2022/08/05 11:18:26;;;;;;;;;;;;;;;;;;5046979;28;20420;-80
2022/08/05 11:20:53;;;;;;;;;;;;;;;;;;5049386;28;19920;-81
2022/08/05 11:23:19;;;;;;;;;;;;;;;;;;5044124;28;19952;-81
2022/08/05 11:25:45;;;;;;;;;;;;;;;;;;5040980;28;19952;-81
2022/08/05 11:28:11;;;;;;;;;;;;;;;;;;5045790;28;19944;-81
2022/08/05 11:30:38;;;;;;;;;;;;;;;;;;5042378;28;19956;-82
2022/08/05 11:33:04;;;;;;;;;;;;;;;;;;5028541;28;19952;-81
2022/08/05 11:35:30;;;;;;;;;;;;;;;;;;5044878;28;20007;-81
2022/08/05 11:37:56;;;;;;;;;;;;;;;;;;5047478;28;19960;-81
2022/08/05 11:40:22;;;;;;;;;;;;;;;;;;5034282;28;21267;-80
2022/08/05 11:42:49;;;;;;;;;;;;;;;;;;5038654;28;19956;-81
2022/08/05 11:45:17;;;;;;;;;;;;;;;;;;5039859;28;19925;-79
2022/08/05 11:47:43;;;;;;;;;;;;;;;;;;5044393;28;19959;-80
2022/08/05 11:50:10;;;;;;;;;;;;;;;;;;5017511;28;19960;-80
2022/08/05 11:52:36;;;;;;;;;;;;;;;;;;5047179;28;19956;-80
2022/08/05 11:55:02;;;;;;;;;;;;;;;;;;5046388;28;20357;-81
2022/08/05 11:57:28;;;;;;;;;;;;;;;;;;5043747;28;19961;-82
2022/08/05 11:59:55;;;;;;;;;;;;;;;;;;5036896;28;20349;-81
2022/08/05 12:02:21;;;;;;;;;;;;;;;;;;5028629;28;19917;-81
2022/08/05 12:04:48;;;;;;;;;;;;;;;;;;5039836;28;20357;-81
2022/08/05 12:07:14;;;;;;;;;;;;;;;;;;5042395;28;19952;-81
2022/08/05 12:09:40;;;;;;;;;;;;;;;;;;5044900;28;19987;-81
2022/08/05 12:12:07;;;;;;;;;;;;;;;;;;5040577;28;19956;-80
2022/08/05 12:14:33;;;;;;;;;;;;;;;;;;5042368;28;19963;-80
2022/08/05 12:16:59;;;;;;;;;;;;;;;;;;5044526;28;20367;-80
2022/08/05 12:19:25;;;;;;;;;;;;;;;;;;5050966;28;19959;-81
2022/08/05 12:21:51;;;;;;;;;;;;;;;;;;5042104;28;19913;-82
2022/08/05 12:24:18;;;;;;;;;;;;;;;;;;5026134;28;20450;-81
2022/08/05 12:26:44;;;;;;;;;;;;;;;;;;5036656;28;19959;-81
2022/08/05 12:29:10;;;;;;;;;;;;;;;;;;5029824;28;19944;-81
2022/08/05 12:31:37;;;;;;;;;;;;;;;;;;5047811;28;19944;-81
2022/08/05 12:34:03;;;;;;;;;;;;;;;;;;5050202;28;20335;-81
2022/08/05 12:36:29;;;;;;;;;;;;;;;;;;5050692;28;19948;-81
2022/08/05 12:38:56;;;;;;;;;;;;;;;;;;5039184;28;19945;-81
2022/08/05 12:41:22;;;;;;;;;;;;;;;;;;5041519;28;19959;-81
2022/08/05 12:43:49;;;;;;;;;;;;;;;;;;5050617;28;20388;-82
2022/08/05 12:46:15;;;;;;;;;;;;;;;;;;5050288;28;19959;-80
2022/08/05 12:48:41;;;;;;;;;;;;;;;;;;5051171;28;20373;-81
2022/08/05 12:51:07;;;;;;;;;;;;;;;;;;5040937;28;19917;-81
2022/08/05 12:53:33;;;;;;;;;;;;;;;;;;5050202;28;20427;-82
2022/08/05 12:55:59;;;;;;;;;;;;;;;;;;5050339;28;20026;-80
2022/08/05 12:58:26;;;;;;;;;;;;;;;;;;5048502;28;19948;-81
2022/08/05 13:00:52;;;;;;;;;;;;;;;;;;5043273;28;19944;-81
2022/08/05 13:03:18;;;;;;;;;;;;;;;;;;5043924;28;20007;-80
2022/08/05 13:05:44;;;;;;;;;;;;;;;;;;5048797;28;20420;-81
2022/08/05 13:08:10;;;;;;;;;;;;;;;;;;5043493;28;19967;-81
2022/08/05 13:10:37;;;;;;;;;;;;;;;;;;5050243;28;19960;-81
2022/08/05 13:13:03;;;;;;;;;;;;;;;;;;5040850;28;19964;-81
2022/08/05 13:15:30;;;;;;;;;;;;;;;;;;5044047;28;19945;-80
2022/08/05 13:17:56;;;;;;;;;;;;;;;;;;5046379;28;19919;-81
2022/08/05 13:20:42;;;;;;;;;;;;;;;;;;5046848;28;19936;-81
2022/08/05 13:23:19;;;;;;;;;;;;;;;;;;5033368;28;19917;-81
2022/08/05 13:25:56;;;;;;;;;;;;;;;;;;5032954;28;19996;-81
2022/08/05 13:28:22;;;;;;;;;;;;;;;;;;5044589;28;20317;-81
2022/08/05 13:30:48;;;;;;;;;;;;;;;;;;5032588;28;19918;-82
2022/08/05 13:33:14;;;;;;;;;;;;;;;;;;5028700;28;19956;-82
2022/08/05 13:35:51;;;;;;;;;;;;;;;;;;5020946;28;19929;-80
2022/08/05 13:38:17;;;;;;;;;;;;;;;;;;5052273;28;19905;-82
2022/08/05 13:40:53;;;;;;;;;;;;;;;;;;5042313;28;20318;-80
2022/08/05 13:43:19;;;;;;;;;;;;;;;;;;5037728;28;20010;-80
2022/08/05 13:45:55;;;;;;;;;;;;;;;;;;5028055;28;19913;-80
2022/08/05 13:48:21;;;;;;;;;;;;;;;;;;5032312;28;19944;-80
2022/08/05 13:50:58;;;;;;;;;;;;;;;;;;5044854;28;19925;-83
2022/08/05 13:53:24;;;;;;;;;;;;;;;;;;5049542;28;19957;-81
2022/08/05 13:56:00;;;;;;;;;;;;;;;;;;5023639;28;19927;-81
2022/08/05 13:58:26;;;;;;;;;;;;;;;;;;5025817;28;19974;-80
2022/08/05 14:00:52;;;;;;;;;;;;;;;;;;5040026;28;19913;-80
2022/08/05 14:03:19;;;;;;;;;;;;;;;;;;5044598;28;19919;-81
2022/08/05 14:05:45;;;;;;;;;;;;;;;;;;5047477;28;19960;-82
2022/08/05 14:08:11;;;;;;;;;;;;;;;;;;5040096;28;20724;-81
2022/08/05 14:10:37;;;;;;;;;;;;;;;;;;5030519;28;19958;-83
2022/08/05 14:13:06;;;;;;;;;;;;;;;;;;5037029;28;20010;-81
2022/08/05 14:15:32;;;;;;;;;;;;;;;;;;5045597;28;20054;-84
2022/08/05 14:17:58;;;;;;;;;;;;;;;;;;5041350;28;19975;-80
2022/08/05 14:20:24;;;;;;;;;;;;;;;;;;5038355;28;19932;-80
2022/08/05 14:22:50;;;;;;;;;;;;;;;;;;5045356;28;19965;-80
2022/08/05 14:25:17;;;;;;;;;;;;;;;;;;5042786;28;20441;-81
2022/08/05 14:27:44;;;;;;;;;;;;;;;;;;5044241;28;20752;-82
2022/08/05 14:30:10;;;;;;;;;;;;;;;;;;5043405;28;20458;-83
2022/08/05 14:32:36;;;;;;;;;;;;;;;;;;5030749;28;20513;-85
2022/08/05 14:35:02;;;;;;;;;;;;;;;;;;5047092;28;19957;-84
2022/08/05 14:37:28;;;;;;;;;;;;;;;;;;5047982;28;19951;-85
2022/08/05 14:39:54;;;;;;;;;;;;;;;;;;5047757;28;19919;-83
2022/08/05 14:42:21;;;;;;;;;;;;;;;;;;5047182;28;19952;-80
2022/08/05 14:44:47;;;;;;;;;;;;;;;;;;5045439;28;19972;-78
2022/08/05 14:47:13;;;;;;;;;;;;;;;;;;5042689;28;21726;-81
2022/08/05 14:49:39;;;;;;;;;;;;;;;;;;5045276;28;19959;-86
2022/08/05 14:52:06;;;;;;;;;;;;;;;;;;5043642;28;19952;-80
2022/08/05 14:54:32;;;;;;;;;;;;;;;;;;5047892;28;19976;-82
2022/08/05 14:56:58;;;;;;;;;;;;;;;;;;5045284;28;20036;-79
2022/08/05 14:59:24;;;;;;;;;;;;;;;;;;5046287;28;19925;-86
2022/08/05 15:01:51;;;;;;;;;;;;;;;;;;5035748;28;20362;-84
2022/08/05 15:04:17;;;;;;;;;;;;;;;;;;5040136;28;19952;-85
2022/08/05 15:06:43;;;;;;;;;;;;;;;;;;5043292;28;19968;-85
2022/08/05 15:09:09;;;;;;;;;;;;;;;;;;5037956;28;20476;-85
2022/08/05 15:11:35;;;;;;;;;;;;;;;;;;5041474;28;19961;-85
2022/08/05 15:14:01;;;;;;;;;;;;;;;;;;5041633;28;19980;-85
2022/08/05 15:16:28;;;;;;;;;;;;;;;;;;5044867;28;19998;-85
2022/08/05 15:18:54;;;;;;;;;;;;;;;;;;5038502;28;19923;-86
2022/08/05 15:21:20;;;;;;;;;;;;;;;;;;5040991;28;20377;-86
2022/08/05 15:23:46;;;;;;;;;;;;;;;;;;5042328;28;19971;-86
2022/08/05 15:26:14;;;;;;;;;;;;;;;;;;5044253;28;19956;-84
2022/08/05 15:28:40;;;;;;;;;;;;;;;;;;5038972;28;20408;-87
2022/08/05 15:31:06;;;;;;;;;;;;;;;;;;5041865;28;19963;-84
2022/08/05 15:33:32;;;;;;;;;;;;;;;;;;5044115;28;19967;-86
2022/08/05 15:35:58;;;;;;;;;;;;;;;;;;5036708;28;19953;-85
2022/08/05 15:38:25;;;;;;;;;;;;;;;;;;5043412;28;19964;-85
2022/08/05 15:40:51;;;;;;;;;;;;;;;;;;5033090;28;20412;-85
2022/08/05 15:43:17;;;;;;;;;;;;;;;;;;5041072;28;19964;-85
2022/08/05 15:45:46;;;;;;;;;;;;;;;;;;5043955;28;19948;-86
2022/08/05 15:48:13;;;;;;;;;;;;;;;;;;5034771;28;19956;-85
2022/08/05 15:50:39;;;;;;;;;;;;;;;;;;5047735;28;19986;-85
2022/08/05 15:53:05;;;;;;;;;;;;;;;;;;5040036;28;20036;-84
2022/08/05 15:55:32;;;;;;;;;;;;;;;;;;5030624;28;19940;-85
2022/08/05 15:57:58;;;;;;;;;;;;;;;;;;5043833;28;19971;-84
2022/08/05 16:00:24;;;;;;;;;;;;;;;;;;5047339;28;20397;-85
2022/08/05 16:02:50;;;;;;;;;;;;;;;;;;5045374;28;19952;-86
2022/08/05 16:05:16;;;;;;;;;;;;;;;;;;5047142;28;19956;-87
2022/08/05 16:07:43;;;;;;;;;;;;;;;;;;5035136;28;20012;-87
2022/08/05 16:10:09;;;;;;;;;;;;;;;;;;5038401;28;19968;-85
2022/08/05 16:12:35;;;;;;;;;;;;;;;;;;5046831;28;20063;-86
2022/08/05 16:15:01;;;;;;;;;;;;;;;;;;5043679;28;19960;-87
2022/08/05 16:17:28;;;;;;;;;;;;;;;;;;5041048;28;19960;-86
2022/08/05 16:19:54;;;;;;;;;;;;;;;;;;5035478;28;19952;-85
2022/08/05 16:22:20;;;;;;;;;;;;;;;;;;5047897;28;20412;-85
2022/08/05 16:24:46;;;;;;;;;;;;;;;;;;5036968;28;19968;-86
2022/08/05 16:27:12;;;;;;;;;;;;;;;;;;5044695;28;20687;-86
2022/08/05 16:29:38;;;;;;;;;;;;;;;;;;5045945;28;19956;-87
2022/08/05 16:32:08;;;;;;;;;;;;;;;;;;5042933;28;20368;-87
2022/08/05 16:34:34;;;;;;;;;;;;;;;;;;5023691;28;20005;-84
2022/08/05 16:37:00;;;;;;;;;;;;;;;;;;5024647;28;20369;-84
2022/08/05 16:39:26;;;;;;;;;;;;;;;;;;5043179;28;19955;-86
2022/08/05 16:41:52;;;;;;;;;;;;;;;;;;5027738;28;20018;-85